Main page
METAR-TAF:

METAR-TAF

Airports :

Frankfurt Airport

Frankfurt, Germany

latitude: 50-03N, longitude: 008-36E, elevation: 111 m

Current weather observation

The report was made 31 minutes ago, at 22:50 UTC
Wind 13 kt from the North/Northeast
Temperature 14°C
Humidity 44%
Pressure 1004 hPa
Visibility 10 km or more
no clouds below 1500 m and no cumulonimbus

METAR: EDDF 222250Z 02013KT CAVOK 14/02 Q1004 NOSIG

Time: 01:21 (23:21 UTC)

Forecast

The report was made 6 hours and 21 minutes ago, at 17:00 UTC
Forecast valid from 22 at 18 UTC to 23 at 24 UTC
Wind 10 kt from the Northeast
Visibility 10 km or more
no clouds below 1500 m and no cumulonimbus
Becoming
from 23 at 10 UTC to 23 at 13 UTC
Wind 10 kt from the East
Becoming
from 23 at 18 UTC to 23 at 21 UTC
Wind 5 kt from the Northeast

TAF: EDDF 221700Z 2218/2324 04010KT CAVOK BECMG 2310/2313 10010KT BECMG 2318/2321 04005KT

Weather observations and forecasts of more than 4000 airports (METAR and TAF reports).

The available stations are represented by yellow and red dots on the map.

Hover mouse over dot to see the name of the station.

Then click to see weather observations and forecasts.

To change the map : click on the green buttons with a black cross to zoom in, on the green button with a dash to zoom out, or on the green arrows for adjacent maps.


METAR-TAF: